Time;durP1;ratioP1;P1;durP2;ratioP2;P2;SDS_P1;SDS_P2;PMS_P1;PMS_P2;Temp;Humidity;BMP_temperature;BMP_pressure;BME280_temperature;BME280_humidity;BME280_pressure;Samples;Min_cycle;Max_cycle;Signal;HPM_P1;HPM_P2
2022/07/06 00:02:20;;;;;;;0.70;0.70;;;18.40;99.90;;;;;;5059443;28;20238;-67
2022/07/06 00:04:47;;;;;;;0.63;0.63;;;18.40;99.90;;;;;;5063624;28;20231;-64
2022/07/06 00:07:15;;;;;;;0.80;0.80;;;18.30;99.90;;;;;;5062488;28;20307;-66
2022/07/06 00:09:42;;;;;;;0.70;0.70;;;18.30;99.90;;;;;;5052730;28;20301;-66
2022/07/06 00:12:10;;;;;;;0.70;0.70;;;18.30;99.90;;;;;;5054480;28;20200;-65
2022/07/06 00:14:37;;;;;;;0.70;0.70;;;18.20;99.90;;;;;;5052689;28;20290;-66
2022/07/06 00:17:04;;;;;;;0.60;0.60;;;18.20;99.90;;;;;;5051275;28;20224;-66
2022/07/06 00:19:31;;;;;;;0.60;0.60;;;18.10;99.90;;;;;;5051899;28;20282;-67
2022/07/06 00:21:58;;;;;;;1.08;0.80;;;18.00;99.90;;;;;;5052581;28;20298;-64
2022/07/06 00:24:26;;;;;;;0.70;0.70;;;18.00;99.90;;;;;;5052706;28;20291;-65
2022/07/06 00:26:53;;;;;;;0.70;0.70;;;17.90;99.90;;;;;;5053474;28;20308;-65
2022/07/06 00:29:20;;;;;;;0.98;0.65;;;17.90;99.90;;;;;;5053669;28;20231;-65
2022/07/06 00:31:47;;;;;;;0.60;0.60;;;17.90;99.90;;;;;;5053103;28;20235;-63
2022/07/06 00:34:14;;;;;;;0.75;0.50;;;17.90;99.90;;;;;;5052528;28;20764;-66
2022/07/06 00:36:41;;;;;;;0.55;0.55;;;18.00;99.90;;;;;;5065984;28;20227;-66
2022/07/06 00:39:08;;;;;;;0.70;0.70;;;17.90;99.90;;;;;;5066514;28;20426;-67
2022/07/06 00:41:36;;;;;;;0.52;0.52;;;17.80;99.90;;;;;;5058040;28;20232;-65
2022/07/06 00:44:09;;;;;;;0.70;0.70;;;17.80;99.90;;;;;;5055663;28;20271;-66
2022/07/06 00:46:36;;;;;;;0.40;0.40;;;17.80;99.90;;;;;;5052436;28;20234;-66
2022/07/06 00:49:03;;;;;;;0.68;0.68;;;17.70;99.90;;;;;;5051477;28;20196;-64
2022/07/06 00:51:31;;;;;;;0.50;0.50;;;17.70;99.90;;;;;;5052388;28;20295;-66
2022/07/06 00:54:02;;;;;;;0.80;0.80;;;17.60;99.90;;;;;;5050206;28;20235;-66
2022/07/06 00:56:31;;;;;;;0.65;0.65;;;17.60;99.90;;;;;;5052010;28;20310;-65
2022/07/06 00:59:00;;;;;;;0.60;0.60;;;17.50;99.90;;;;;;5051239;28;20203;-66
2022/07/06 01:01:27;;;;;;;0.60;0.60;;;17.40;99.90;;;;;;5051753;28;20212;-65
2022/07/06 01:03:54;;;;;;;0.70;0.70;;;17.40;99.90;;;;;;5051452;28;20345;-66
2022/07/06 01:06:21;;;;;;;0.70;0.70;;;17.40;99.90;;;;;;5051444;28;20251;-65
2022/07/06 01:08:49;;;;;;;0.70;0.70;;;17.40;99.90;;;;;;5051336;28;20291;-65
2022/07/06 01:11:17;;;;;;;0.73;0.73;;;17.40;99.90;;;;;;5052151;28;20573;-65
2022/07/06 01:13:43;;;;;;;0.60;0.60;;;17.40;99.90;;;;;;5052131;28;20721;-66
2022/07/06 01:16:13;;;;;;;0.95;0.80;;;17.40;99.90;;;;;;5050739;28;20311;-65
2022/07/06 01:18:41;;;;;;;0.60;0.60;;;17.30;99.90;;;;;;5051502;28;20204;-65
2022/07/06 01:21:12;;;;;;;0.55;0.55;;;17.20;99.90;;;;;;5052602;28;20271;-66
2022/07/06 01:23:43;;;;;;;0.70;0.70;;;17.20;99.90;;;;;;5056661;28;20263;-65
2022/07/06 01:26:12;;;;;;;0.80;0.80;;;17.20;99.90;;;;;;5056032;28;20311;-66
2022/07/06 01:28:40;;;;;;;0.60;0.60;;;17.10;99.90;;;;;;5054587;28;20261;-65
2022/07/06 01:31:14;;;;;;;0.63;0.63;;;17.10;99.90;;;;;;5051438;28;20200;-66
2022/07/06 01:33:41;;;;;;;0.60;0.60;;;17.00;99.90;;;;;;5052032;28;20204;-64
2022/07/06 01:36:08;;;;;;;0.60;0.60;;;16.90;99.90;;;;;;5056461;28;20311;-65
2022/07/06 01:38:46;;;;;;;1.05;0.70;;;17.00;99.90;;;;;;5053928;28;20733;-65
2022/07/06 01:41:13;;;;;;;0.73;0.73;;;16.90;99.90;;;;;;5046459;28;20200;-66
2022/07/06 01:43:40;;;;;;;0.45;0.45;;;16.80;99.90;;;;;;5048262;28;20211;-63
2022/07/06 01:46:07;;;;;;;0.40;0.40;;;16.70;99.90;;;;;;5052160;28;20705;-65
2022/07/06 01:48:34;;;;;;;0.60;0.60;;;16.70;99.90;;;;;;5051557;28;20208;-65
2022/07/06 01:51:01;;;;;;;0.70;0.70;;;16.70;99.90;;;;;;5054726;28;20206;-66
2022/07/06 01:53:27;;;;;;;0.70;0.70;;;16.70;99.90;;;;;;5054480;28;20606;-66
2022/07/06 01:55:56;;;;;;;1.45;0.80;;;16.70;99.90;;;;;;5052891;28;20339;-65
2022/07/06 01:58:23;;;;;;;0.70;0.70;;;16.70;99.90;;;;;;5054029;28;20204;-64
2022/07/06 02:00:50;;;;;;;0.55;0.55;;;16.70;99.90;;;;;;5054098;28;20231;-66
2022/07/06 02:03:17;;;;;;;0.70;0.70;;;16.70;99.90;;;;;;5054056;28;20196;-65
2022/07/06 02:05:44;;;;;;;0.60;0.60;;;16.60;99.90;;;;;;5050797;28;20281;-65
2022/07/06 02:08:10;;;;;;;1.23;0.80;;;16.70;99.90;;;;;;5057924;28;20279;-65
2022/07/06 02:10:37;;;;;;;0.60;0.60;;;16.70;99.90;;;;;;5070137;28;20276;-62
2022/07/06 02:13:05;;;;;;;0.70;0.70;;;16.60;99.90;;;;;;5068268;28;20208;-64
2022/07/06 02:15:32;;;;;;;0.70;0.70;;;16.50;99.90;;;;;;5062759;28;20295;-63
2022/07/06 02:17:59;;;;;;;0.80;0.80;;;16.40;99.90;;;;;;5060825;28;20258;-63
2022/07/06 02:20:26;;;;;;;0.73;0.73;;;16.40;99.90;;;;;;5065487;28;20190;-66
2022/07/06 02:22:53;;;;;;;0.73;0.73;;;16.40;99.90;;;;;;5060768;28;20208;-63
2022/07/06 02:25:20;;;;;;;0.50;0.50;;;16.30;99.90;;;;;;5052675;28;20658;-62
2022/07/06 02:27:47;;;;;;;0.57;0.57;;;16.30;99.90;;;;;;5049154;28;20936;-67
2022/07/06 02:30:15;;;;;;;0.60;0.60;;;16.20;99.90;;;;;;5054081;28;20262;-63
2022/07/06 02:32:42;;;;;;;0.77;0.77;;;16.10;99.90;;;;;;5053376;28;20286;-64
2022/07/06 02:35:09;;;;;;;0.77;0.77;;;16.20;99.90;;;;;;5053968;28;20224;-64
2022/07/06 02:37:36;;;;;;;0.70;0.70;;;16.10;99.90;;;;;;5054922;28;20228;-63
2022/07/06 02:40:03;;;;;;;0.75;0.75;;;16.10;99.90;;;;;;5054261;28;20210;-63
2022/07/06 02:42:29;;;;;;;0.80;0.80;;;16.10;99.90;;;;;;5054599;28;20200;-64
2022/07/06 02:44:56;;;;;;;0.77;0.77;;;16.10;99.90;;;;;;5053411;28;20672;-63
2022/07/06 02:47:26;;;;;;;0.73;0.55;;;16.10;99.90;;;;;;5053326;28;20219;-62
2022/07/06 02:49:52;;;;;;;0.70;0.70;;;16.10;99.90;;;;;;5053041;28;20204;-62
2022/07/06 02:52:19;;;;;;;0.57;0.57;;;16.10;99.90;;;;;;5053495;28;20723;-66
2022/07/06 02:54:46;;;;;;;0.80;0.80;;;16.10;99.90;;;;;;5051069;28;20208;-63
2022/07/06 02:57:13;;;;;;;0.80;0.80;;;16.00;99.90;;;;;;5045769;28;20357;-64
2022/07/06 02:59:40;;;;;;;0.70;0.70;;;16.00;99.90;;;;;;5052630;28;20231;-64
2022/07/06 03:02:08;;;;;;;0.80;0.80;;;16.00;99.90;;;;;;5053456;28;20204;-63
2022/07/06 03:04:36;;;;;;;0.68;0.68;;;16.00;99.90;;;;;;5053497;28;20608;-63
2022/07/06 03:07:03;;;;;;;0.68;0.68;;;15.90;99.90;;;;;;5053028;28;20221;-63
2022/07/06 03:09:30;;;;;;;0.90;0.80;;;15.90;99.90;;;;;;5052788;28;20215;-63
2022/07/06 03:11:57;;;;;;;0.70;0.70;;;15.90;99.90;;;;;;5053311;28;20291;-63
2022/07/06 03:14:25;;;;;;;0.50;0.50;;;15.80;99.90;;;;;;5062778;28;20196;-63
2022/07/06 03:16:52;;;;;;;0.60;0.60;;;15.70;99.90;;;;;;5074924;28;20220;-64
2022/07/06 03:19:18;;;;;;;0.60;0.60;;;15.90;99.90;;;;;;5073470;28;20207;-65
2022/07/06 03:21:47;;;;;;;0.70;0.70;;;15.80;99.90;;;;;;5068888;28;20204;-66
2022/07/06 03:24:13;;;;;;;0.60;0.60;;;15.70;99.90;;;;;;5073420;28;20228;-68
2022/07/06 03:26:40;;;;;;;0.57;0.57;;;15.60;99.90;;;;;;5055528;28;20307;-65
2022/07/06 03:29:07;;;;;;;0.55;0.55;;;15.60;99.90;;;;;;5054276;28;20662;-62
2022/07/06 03:31:35;;;;;;;0.95;0.90;;;15.60;99.90;;;;;;5055032;28;20295;-63
2022/07/06 03:34:01;;;;;;;1.27;0.88;;;15.50;99.90;;;;;;5054535;28;20211;-63
2022/07/06 03:36:28;;;;;;;0.68;0.68;;;15.50;99.90;;;;;;5053201;28;20308;-62
2022/07/06 03:38:56;;;;;;;0.70;0.70;;;15.50;99.90;;;;;;5051821;28;20259;-65
2022/07/06 03:41:23;;;;;;;0.70;0.70;;;15.40;99.90;;;;;;5052224;28;20235;-62
2022/07/06 03:43:50;;;;;;;0.70;0.70;;;15.40;99.90;;;;;;5052546;28;20200;-62
2022/07/06 03:46:17;;;;;;;0.80;0.80;;;15.30;99.90;;;;;;5052356;28;20224;-66
2022/07/06 03:48:44;;;;;;;0.60;0.60;;;15.30;99.90;;;;;;5048112;28;20253;-64
2022/07/06 03:51:11;;;;;;;0.80;0.80;;;15.20;99.90;;;;;;5045005;28;20200;-64
2022/07/06 03:53:38;;;;;;;0.60;0.60;;;15.10;99.90;;;;;;5049461;28;20239;-64
2022/07/06 03:59:06;;;;;;;1.23;0.70;;;15.20;99.90;;;;;;5006113;28;20264;-65
2022/07/06 04:01:33;;;;;;;0.80;0.80;;;15.20;99.90;;;;;;5010084;28;20241;-66
2022/07/06 04:03:59;;;;;;;0.88;0.88;;;15.20;99.90;;;;;;5010131;28;20198;-65
2022/07/06 04:06:27;;;;;;;0.75;0.75;;;15.20;99.90;;;;;;5011319;28;20237;-66
2022/07/06 04:08:53;;;;;;;0.75;0.75;;;15.20;99.90;;;;;;5022476;28;20749;-65
2022/07/06 04:11:22;;;;;;;0.50;0.50;;;15.20;99.90;;;;;;5023938;28;20284;-65
2022/07/06 04:13:48;;;;;;;0.88;0.88;;;15.20;99.90;;;;;;5023022;28;20727;-67
2022/07/06 04:16:15;;;;;;;0.70;0.70;;;15.30;99.90;;;;;;5025214;28;20225;-67
2022/07/06 04:18:42;;;;;;;0.70;0.70;;;15.30;99.90;;;;;;5046134;22;20236;-66
2022/07/06 04:21:09;;;;;;;0.80;0.80;;;15.30;99.90;;;;;;5047853;28;20211;-65
2022/07/06 04:23:36;;;;;;;0.57;0.57;;;15.30;99.90;;;;;;5056285;28;20246;-65
2022/07/06 04:26:03;;;;;;;1.20;0.80;;;15.40;99.90;;;;;;5049262;28;20200;-64
2022/07/06 04:28:31;;;;;;;0.75;0.75;;;15.40;99.90;;;;;;5048701;28;20264;-65
2022/07/06 04:30:58;;;;;;;0.70;0.70;;;15.50;99.90;;;;;;5049606;28;20255;-64
2022/07/06 04:33:25;;;;;;;0.70;0.70;;;15.50;99.90;;;;;;5049343;28;20207;-66
2022/07/06 04:35:52;;;;;;;0.70;0.70;;;15.60;99.90;;;;;;5044617;28;20230;-65
2022/07/06 04:38:19;;;;;;;2.30;0.93;;;15.60;99.90;;;;;;5049239;28;20228;-65
2022/07/06 04:40:47;;;;;;;0.80;0.80;;;15.70;99.90;;;;;;5047901;28;20271;-67
2022/07/06 04:43:14;;;;;;;0.70;0.70;;;15.90;99.90;;;;;;5046918;28;20208;-66
2022/07/06 04:45:42;;;;;;;0.70;0.70;;;16.10;99.90;;;;;;5049860;28;20226;-64
2022/07/06 04:48:09;;;;;;;0.80;0.80;;;16.20;99.90;;;;;;5049447;28;20318;-67
2022/07/06 04:50:36;;;;;;;0.55;0.55;;;16.40;99.90;;;;;;5050044;28;20658;-66
2022/07/06 04:53:03;;;;;;;0.80;0.80;;;16.50;99.90;;;;;;5049048;28;20210;-65
2022/07/06 04:55:30;;;;;;;0.55;0.55;;;16.60;99.90;;;;;;5045691;28;20609;-66
2022/07/06 04:57:57;;;;;;;0.90;0.90;;;16.70;99.90;;;;;;5049891;28;20244;-67
2022/07/06 05:00:24;;;;;;;0.77;0.77;;;16.90;99.90;;;;;;5048502;28;20204;-65
2022/07/06 05:02:52;;;;;;;0.60;0.60;;;17.00;99.90;;;;;;5051236;28;20299;-67
2022/07/06 05:05:19;;;;;;;1.33;0.97;;;17.20;99.90;;;;;;5049554;28;20204;-64
2022/07/06 08:22:06;;;;;;;0.90;0.90;;;22.20;99.90;;;;;;3540026;22;20491;-66
2022/07/06 08:24:34;;;;;;;1.38;0.90;;;22.30;99.90;;;;;;5031705;28;20205;-66
2022/07/06 08:27:00;;;;;;;1.00;1.00;;;22.60;99.90;;;;;;5031884;28;20200;-66
2022/07/06 08:29:27;;;;;;;1.17;1.08;;;22.60;99.90;;;;;;5031473;28;20283;-67
2022/07/06 08:31:54;;;;;;;1.30;1.20;;;22.70;99.90;;;;;;5031627;28;20229;-66
2022/07/06 08:34:21;;;;;;;0.90;0.90;;;22.70;99.90;;;;;;5032035;28;20240;-68
2022/07/06 08:36:48;;;;;;;0.98;0.98;;;22.60;99.90;;;;;;5032174;28;20258;-67
2022/07/06 08:39:17;;;;;;;0.90;0.90;;;22.60;99.90;;;;;;5031926;28;20225;-66
2022/07/06 08:41:47;;;;;;;1.40;1.25;;;22.60;99.90;;;;;;5034540;28;20279;-69
2022/07/06 08:44:14;;;;;;;0.88;0.88;;;22.60;99.90;;;;;;5024641;28;20258;-66
2022/07/06 08:46:42;;;;;;;1.00;1.00;;;22.80;99.90;;;;;;5032128;28;20719;-66
2022/07/06 08:49:09;;;;;;;0.88;0.88;;;22.80;99.90;;;;;;5031737;28;20688;-66
2022/07/06 08:51:37;;;;;;;0.98;0.98;;;22.90;99.90;;;;;;5030620;28;20220;-65
2022/07/06 08:54:04;;;;;;;1.05;1.05;;;23.00;99.90;;;;;;5031858;28;20226;-66
2022/07/06 08:56:33;;;;;;;1.23;1.00;;;23.10;99.90;;;;;;5032109;28;20691;-67
2022/07/06 08:59:00;;;;;;;0.88;0.88;;;23.20;99.90;;;;;;5034097;28;20538;-67
2022/07/06 09:01:27;;;;;;;1.30;1.13;;;23.30;99.90;;;;;;5035615;28;20837;-67
2022/07/06 09:03:56;;;;;;;1.60;1.38;;;23.10;99.90;;;;;;5035794;28;20204;-67
2022/07/06 09:06:25;;;;;;;1.25;1.08;;;22.90;99.90;;;;;;5035849;28;20296;-66
2022/07/06 09:08:55;;;;;;;1.20;1.10;;;22.90;99.90;;;;;;5035806;28;20633;-67
2022/07/06 09:11:22;;;;;;;1.05;1.05;;;23.00;99.90;;;;;;5035962;28;20312;-65
2022/07/06 09:13:51;;;;;;;1.45;1.35;;;23.20;99.90;;;;;;5035599;28;20208;-64
2022/07/06 09:16:18;;;;;;;1.10;1.10;;;23.40;99.90;;;;;;5035955;28;20226;-65
2022/07/06 09:18:46;;;;;;;1.42;1.20;;;23.40;99.90;;;;;;5035537;28;20220;-67
2022/07/06 09:21:22;;;;;;;1.00;1.00;;;23.40;99.90;;;;;;5027602;28;20220;-66
2022/07/06 09:23:54;;;;;;;1.13;1.10;;;23.30;99.90;;;;;;5036084;28;20239;-67
2022/07/06 09:26:21;;;;;;;1.08;1.08;;;23.30;99.90;;;;;;5038602;28;20750;-68
2022/07/06 09:28:49;;;;;;;3.50;1.45;;;23.40;99.90;;;;;;5038289;28;20292;-68
2022/07/06 09:31:16;;;;;;;0.82;0.82;;;23.60;99.90;;;;;;5028746;28;20216;-65
2022/07/06 09:33:54;;;;;;;1.10;1.10;;;23.40;99.90;;;;;;5035768;28;20296;-69
2022/07/06 09:36:38;;;;;;;1.00;1.00;;;23.60;99.90;;;;;;5030381;28;20260;-68
2022/07/06 09:39:20;;;;;;;1.58;1.48;;;23.80;99.90;;;;;;5036544;28;20227;-68
2022/07/06 09:41:47;;;;;;;0.90;0.90;;;23.80;99.90;;;;;;5040046;28;20224;-65
2022/07/06 09:44:20;;;;;;;0.90;0.90;;;23.60;99.90;;;;;;5051228;28;20248;-68
2022/07/06 09:46:48;;;;;;;1.98;1.20;;;23.70;99.90;;;;;;5053846;28;20209;-67
2022/07/06 09:49:18;;;;;;;1.30;1.10;;;23.70;99.90;;;;;;5050148;28;20208;-65
2022/07/06 09:51:46;;;;;;;0.90;0.90;;;23.60;99.90;;;;;;5037097;28;20236;-67
2022/07/06 09:54:13;;;;;;;1.13;1.00;;;23.60;99.90;;;;;;5028433;28;20208;-68
2022/07/06 09:56:41;;;;;;;1.38;1.27;;;23.70;99.90;;;;;;5035078;28;20686;-69
2022/07/06 09:59:12;;;;;;;2.47;1.10;;;24.00;99.90;;;;;;5024996;28;20256;-67
2022/07/06 10:01:41;;;;;;;1.70;1.45;;;24.20;99.90;;;;;;5035372;28;20232;-68
2022/07/06 10:04:08;;;;;;;0.82;0.82;;;24.30;99.90;;;;;;5031144;28;20299;-68
2022/07/06 10:06:36;;;;;;;1.15;1.15;;;24.30;99.90;;;;;;5027412;28;20281;-66
2022/07/06 10:09:06;;;;;;;1.10;1.10;;;24.30;99.90;;;;;;5026252;28;20209;-67
2022/07/06 10:11:38;;;;;;;1.20;1.10;;;24.30;99.90;;;;;;5021503;28;20257;-68
2022/07/06 10:14:07;;;;;;;1.38;1.27;;;24.30;99.90;;;;;;5018275;28;20260;-67
2022/07/06 10:16:36;;;;;;;1.20;1.20;;;24.20;99.90;;;;;;5019525;28;20215;-66
2022/07/06 10:19:06;;;;;;;1.60;1.05;;;24.00;99.90;;;;;;5023108;28;20590;-65
2022/07/06 10:21:34;;;;;;;1.20;1.20;;;24.10;99.90;;;;;;5018857;28;20259;-65
2022/07/06 10:24:02;;;;;;;1.63;1.30;;;24.20;99.90;;;;;;5027203;28;20569;-67
2022/07/06 10:26:30;;;;;;;1.23;1.10;;;24.40;99.90;;;;;;5022466;28;20288;-67
2022/07/06 10:28:59;;;;;;;1.05;1.05;;;24.20;99.90;;;;;;5022828;28;20249;-65
2022/07/06 10:31:28;;;;;;;1.20;1.10;;;24.30;99.90;;;;;;5026797;28;20252;-65
2022/07/06 10:33:56;;;;;;;1.25;0.90;;;24.40;99.90;;;;;;5019879;28;20264;-68
2022/07/06 10:36:25;;;;;;;1.25;1.15;;;24.40;99.90;;;;;;5038541;28;20255;-65
2022/07/06 10:38:53;;;;;;;1.05;1.02;;;24.40;99.90;;;;;;5045024;28;20225;-65
2022/07/06 10:41:31;;;;;;;1.02;1.00;;;24.40;99.90;;;;;;5040486;28;20220;-67
2022/07/06 10:44:00;;;;;;;0.90;0.90;;;24.50;99.90;;;;;;5026637;28;20292;-65
2022/07/06 10:46:29;;;;;;;1.10;1.00;;;24.70;99.90;;;;;;5033028;28;20263;-65
2022/07/06 10:49:55;;;;;;;1.95;1.23;;;24.80;99.90;;;;;;5044016;28;20220;-67
2022/07/06 10:52:23;;;;;;;1.08;0.98;;;24.90;99.90;;;;;;5036597;28;20233;-65
2022/07/06 10:54:50;;;;;;;1.10;1.10;;;25.00;99.90;;;;;;5041250;28;20209;-66
2022/07/06 10:57:18;;;;;;;0.95;0.95;;;24.90;99.90;;;;;;5035173;28;20228;-67
2022/07/06 11:00:02;;;;;;;1.20;1.10;;;25.00;99.90;;;;;;5031665;28;20279;-67
2022/07/06 11:02:39;;;;;;;1.65;1.10;;;24.90;99.90;;;;;;5032154;28;20952;-67
2022/07/06 11:05:12;;;;;;;1.10;1.10;;;24.90;99.90;;;;;;5029246;28;20232;-67
2022/07/06 11:07:51;;;;;;;0.90;0.90;;;24.80;99.90;;;;;;5027331;28;20693;-65
2022/07/06 11:10:18;;;;;;;1.00;1.00;;;24.90;99.90;;;;;;5026337;28;20663;-65
2022/07/06 11:12:46;;;;;;;1.60;1.10;;;25.20;99.90;;;;;;5024816;28;20239;-65
2022/07/06 11:15:13;;;;;;;1.00;1.00;;;25.20;99.90;;;;;;5015218;28;20672;-66
2022/07/06 11:17:44;;;;;;;1.35;1.00;;;25.20;99.90;;;;;;5021278;28;20209;-68
2022/07/06 11:20:12;;;;;;;0.93;0.93;;;25.20;99.90;;;;;;5013779;28;21702;-66
2022/07/06 11:22:40;;;;;;;0.98;0.95;;;25.30;99.90;;;;;;5019120;28;20241;-68
2022/07/06 11:25:09;;;;;;;0.90;0.90;;;25.20;99.90;;;;;;5021289;28;20213;-68
2022/07/06 11:27:36;;;;;;;1.17;1.15;;;25.20;99.90;;;;;;5017760;28;20206;-67
2022/07/06 11:30:03;;;;;;;1.20;1.10;;;25.10;99.90;;;;;;5026603;28;20527;-68
2022/07/06 11:32:31;;;;;;;0.90;0.90;;;25.10;99.90;;;;;;5033447;28;20220;-69
2022/07/06 11:34:58;;;;;;;0.88;0.88;;;25.00;99.90;;;;;;5029529;28;20204;-66
2022/07/06 11:37:25;;;;;;;0.90;0.90;;;25.00;99.90;;;;;;5028570;28;20205;-65
2022/07/06 11:39:52;;;;;;;1.10;1.02;;;24.90;99.90;;;;;;5027653;28;20384;-67
2022/07/06 11:42:20;;;;;;;1.05;1.05;;;24.80;99.90;;;;;;5029906;28;20278;-67
2022/07/06 11:44:50;;;;;;;0.90;0.90;;;25.00;99.90;;;;;;5032260;28;20257;-66
2022/07/06 11:47:17;;;;;;;0.82;0.80;;;25.20;99.90;;;;;;5026609;28;20209;-64
2022/07/06 11:49:45;;;;;;;0.80;0.80;;;25.50;99.90;;;;;;5037720;28;20204;-66
2022/07/06 11:52:14;;;;;;;0.90;0.90;;;25.80;99.90;;;;;;5038513;28;20284;-68
2022/07/06 11:54:43;;;;;;;1.00;1.00;;;26.00;99.90;;;;;;5026434;28;20201;-65
2022/07/06 11:57:11;;;;;;;1.27;1.00;;;25.80;99.90;;;;;;5034212;28;20210;-66
2022/07/06 11:59:40;;;;;;;0.90;0.90;;;25.70;99.90;;;;;;5028226;28;20237;-65
2022/07/06 12:02:09;;;;;;;1.00;1.00;;;25.90;99.90;;;;;;5019774;28;20721;-68
2022/07/06 12:04:38;;;;;;;2.63;1.00;;;25.80;99.90;;;;;;5024257;28;20395;-68
2022/07/06 12:07:07;;;;;;;0.80;0.80;;;25.60;99.90;;;;;;5020283;28;20298;-67
2022/07/06 12:09:35;;;;;;;0.90;0.90;;;25.70;99.90;;;;;;5016512;28;20204;-65
2022/07/06 12:12:03;;;;;;;0.88;0.88;;;25.40;99.90;;;;;;5020335;28;20641;-67
2022/07/06 12:14:30;;;;;;;1.00;1.00;;;25.20;99.90;;;;;;5023961;28;20208;-67
2022/07/06 12:17:04;;;;;;;1.00;1.00;;;25.30;99.90;;;;;;5015300;28;20288;-69
2022/07/06 12:19:31;;;;;;;0.90;0.90;;;25.70;99.90;;;;;;5035790;28;20769;-67
2022/07/06 12:21:58;;;;;;;0.70;0.70;;;25.70;99.90;;;;;;5030096;28;20264;-66
2022/07/06 12:24:27;;;;;;;1.10;1.00;;;25.50;99.90;;;;;;5022608;28;20292;-67
2022/07/06 12:26:55;;;;;;;0.90;0.90;;;25.10;99.90;;;;;;5036187;28;20234;-65
2022/07/06 12:29:23;;;;;;;1.20;1.10;;;25.10;99.90;;;;;;5036055;28;20205;-66
2022/07/06 12:31:52;;;;;;;1.20;0.93;;;24.90;99.90;;;;;;5029505;28;20235;-67
2022/07/06 12:34:22;;;;;;;1.67;0.80;;;25.00;99.90;;;;;;5023657;28;20236;-67
2022/07/06 12:36:50;;;;;;;0.88;0.88;;;25.10;99.90;;;;;;5027363;28;20220;-66
2022/07/06 12:39:19;;;;;;;2.50;0.98;;;25.20;99.90;;;;;;5029173;28;20224;-69
2022/07/06 12:41:49;;;;;;;0.70;0.70;;;25.50;99.90;;;;;;5040535;28;20300;-66
2022/07/06 12:44:18;;;;;;;0.70;0.70;;;25.80;99.90;;;;;;5044248;28;20228;-65
2022/07/06 12:46:45;;;;;;;0.82;0.82;;;25.90;99.90;;;;;;5041549;28;20201;-65
2022/07/06 12:49:15;;;;;;;0.68;0.68;;;25.70;99.90;;;;;;5028082;28;20246;-66
2022/07/06 12:51:58;;;;;;;0.80;0.80;;;25.30;99.90;;;;;;5027366;28;20226;-66
2022/07/06 12:54:27;;;;;;;2.40;1.00;;;25.50;99.90;;;;;;5037273;28;20239;-66
2022/07/06 12:57:07;;;;;;;1.08;1.00;;;25.80;99.90;;;;;;5040971;28;20900;-65
2022/07/06 12:59:37;;;;;;;0.65;0.65;;;26.00;99.90;;;;;;5031694;28;20588;-67
2022/07/06 13:02:05;;;;;;;1.13;0.90;;;26.30;99.90;;;;;;5040149;28;20232;-67
2022/07/06 13:04:34;;;;;;;1.02;0.93;;;26.10;99.90;;;;;;5038501;28;20205;-68
2022/07/06 13:07:04;;;;;;;0.80;0.80;;;26.10;99.90;;;;;;5032690;28;20268;-67
2022/07/06 13:09:31;;;;;;;1.00;1.00;;;26.00;99.90;;;;;;5028469;28;20196;-68
2022/07/06 13:11:58;;;;;;;1.08;1.00;;;25.70;99.90;;;;;;5028785;28;20226;-68
2022/07/06 13:14:25;;;;;;;0.82;0.82;;;25.60;99.90;;;;;;5028276;28;20213;-66
2022/07/06 13:16:53;;;;;;;0.93;0.93;;;25.50;99.90;;;;;;5022394;28;20200;-68
2022/07/06 13:19:20;;;;;;;0.70;0.70;;;25.70;99.90;;;;;;5023695;28;20228;-70
2022/07/06 13:21:47;;;;;;;0.70;0.70;;;25.70;99.90;;;;;;5023710;28;20236;-64
2022/07/06 13:24:16;;;;;;;0.73;0.70;;;25.70;99.90;;;;;;5017694;28;20616;-69
2022/07/06 13:26:42;;;;;;;0.90;0.90;;;26.00;99.90;;;;;;5017807;28;20320;-68
2022/07/06 13:29:10;;;;;;;0.82;0.82;;;26.20;99.90;;;;;;5020535;28;21003;-67
2022/07/06 13:31:39;;;;;;;0.80;0.80;;;26.30;99.90;;;;;;5023075;28;20229;-67
2022/07/06 13:34:06;;;;;;;0.55;0.55;;;26.40;99.90;;;;;;5023104;28;20202;-68
2022/07/06 13:36:33;;;;;;;1.20;0.95;;;26.40;99.90;;;;;;5019952;28;20237;-69
2022/07/06 13:39:00;;;;;;;0.90;0.90;;;26.00;99.90;;;;;;5022552;28;20311;-67
2022/07/06 13:41:29;;;;;;;0.60;0.60;;;26.00;99.90;;;;;;5029143;28;20256;-68
2022/07/06 13:43:56;;;;;;;0.80;0.80;;;26.10;99.90;;;;;;5029857;28;20608;-69
2022/07/06 13:46:23;;;;;;;0.65;0.65;;;25.80;99.90;;;;;;5032503;28;20235;-69
2022/07/06 13:48:49;;;;;;;0.98;0.88;;;25.90;99.90;;;;;;5029270;28;20211;-67
2022/07/06 13:51:17;;;;;;;1.08;0.90;;;26.00;99.90;;;;;;5025635;28;20228;-69
2022/07/06 13:53:45;;;;;;;0.80;0.80;;;26.30;99.90;;;;;;5036811;28;20220;-69
2022/07/06 13:56:12;;;;;;;0.90;0.90;;;26.40;99.90;;;;;;5032215;28;20204;-67
2022/07/06 13:58:56;;;;;;;0.77;0.77;;;25.90;99.90;;;;;;5031265;28;20209;-68
2022/07/06 14:01:23;;;;;;;0.85;0.85;;;25.90;99.90;;;;;;5026893;28;20224;-67
2022/07/06 14:03:50;;;;;;;1.27;0.93;;;26.10;99.90;;;;;;5032618;28;20215;-67
2022/07/06 14:06:18;;;;;;;0.82;0.82;;;26.20;99.90;;;;;;5031573;28;20744;-69
2022/07/06 14:08:44;;;;;;;1.00;1.00;;;26.30;99.90;;;;;;5032164;28;20589;-69
2022/07/06 14:11:12;;;;;;;0.70;0.70;;;26.50;99.90;;;;;;5034174;28;20311;-69
2022/07/06 14:13:39;;;;;;;0.75;0.75;;;26.60;99.90;;;;;;5034257;28;20208;-67
2022/07/06 14:16:08;;;;;;;0.60;0.60;;;26.50;99.90;;;;;;5034544;28;20235;-67
2022/07/06 14:18:35;;;;;;;1.38;0.98;;;26.40;99.90;;;;;;5034359;28;20212;-68
2022/07/06 14:21:03;;;;;;;0.93;0.90;;;26.50;99.90;;;;;;5035520;28;20315;-69
2022/07/06 14:23:30;;;;;;;0.55;0.55;;;26.40;99.90;;;;;;5034931;28;20204;-69
2022/07/06 14:25:57;;;;;;;0.73;0.73;;;26.50;99.90;;;;;;5034757;28;20644;-68
2022/07/06 14:28:25;;;;;;;1.35;1.00;;;26.50;99.90;;;;;;5033118;28;20212;-69
2022/07/06 14:30:52;;;;;;;0.75;0.75;;;26.30;99.90;;;;;;5034908;28;20307;-67
2022/07/06 14:33:20;;;;;;;0.80;0.80;;;26.40;99.90;;;;;;5035267;28;20733;-67
2022/07/06 14:35:48;;;;;;;1.60;0.90;;;26.40;99.90;;;;;;5034061;28;20212;-68
2022/07/06 14:38:16;;;;;;;0.80;0.80;;;26.20;99.90;;;;;;5026279;28;20656;-68
2022/07/06 14:40:43;;;;;;;0.77;0.77;;;26.10;99.90;;;;;;5034048;28;20642;-68
2022/07/06 14:43:11;;;;;;;0.93;0.80;;;26.00;99.90;;;;;;5033441;28;20204;-71
2022/07/06 14:45:38;;;;;;;0.68;0.68;;;26.00;99.90;;;;;;5033836;28;20295;-66
2022/07/06 14:48:06;;;;;;;0.77;0.70;;;26.00;99.90;;;;;;5032817;28;20592;-65
2022/07/06 14:50:35;;;;;;;1.38;0.70;;;26.10;99.90;;;;;;5034210;28;20196;-65
2022/07/06 14:53:02;;;;;;;0.80;0.80;;;25.90;99.90;;;;;;5033326;28;20205;-68
2022/07/06 14:55:28;;;;;;;0.63;0.63;;;25.80;99.90;;;;;;5031669;28;20255;-65
2022/07/06 14:57:56;;;;;;;1.17;0.85;;;26.00;99.90;;;;;;5033074;28;20207;-68
2022/07/06 15:00:22;;;;;;;0.70;0.70;;;26.00;99.90;;;;;;5033490;28;20219;-66
2022/07/06 15:02:49;;;;;;;0.52;0.52;;;26.10;99.90;;;;;;5033343;28;20216;-65
2022/07/06 15:05:16;;;;;;;1.08;0.88;;;26.10;99.90;;;;;;5026003;28;20547;-65
2022/07/06 15:07:44;;;;;;;0.73;0.73;;;25.90;99.90;;;;;;5033550;28;20712;-66
2022/07/06 15:10:11;;;;;;;0.70;0.70;;;25.80;99.90;;;;;;5032708;28;20232;-65
2022/07/06 15:12:38;;;;;;;0.80;0.80;;;25.80;99.90;;;;;;5033320;28;20267;-67
2022/07/06 15:15:06;;;;;;;0.70;0.70;;;25.80;99.90;;;;;;5035178;28;20641;-65
2022/07/06 15:17:33;;;;;;;0.80;0.80;;;26.10;99.90;;;;;;5039115;28;20287;-67
2022/07/06 15:20:00;;;;;;;1.38;0.82;;;26.10;99.20;;;;;;5038435;28;20228;-66
2022/07/06 15:22:28;;;;;;;0.73;0.73;;;26.10;99.30;;;;;;5033886;28;20641;-65
2022/07/06 15:24:56;;;;;;;2.38;0.80;;;26.20;98.90;;;;;;5031584;28;20201;-67
2022/07/06 15:27:23;;;;;;;0.88;0.88;;;26.10;98.20;;;;;;5029229;28;20200;-66
2022/07/06 15:29:49;;;;;;;0.60;0.60;;;26.10;99.20;;;;;;5041429;28;20284;-67
2022/07/06 15:32:16;;;;;;;0.70;0.70;;;26.30;99.30;;;;;;5048814;28;20247;-67
2022/07/06 15:34:43;;;;;;;0.88;0.63;;;26.30;97.50;;;;;;5047092;28;20628;-66
2022/07/06 15:37:10;;;;;;;0.70;0.70;;;26.10;98.90;;;;;;5046130;28;20219;-66
2022/07/06 15:39:37;;;;;;;0.50;0.50;;;26.00;98.30;;;;;;5038897;28;21471;-66
2022/07/06 15:42:07;;;;;;;0.70;0.70;;;25.90;97.90;;;;;;5025220;28;20363;-65
2022/07/06 15:44:33;;;;;;;0.60;0.60;;;25.80;97.80;;;;;;5018253;28;20277;-65
2022/07/06 15:47:06;;;;;;;0.50;0.50;;;25.70;98.00;;;;;;5018454;28;20304;-66
2022/07/06 15:49:33;;;;;;;0.75;0.75;;;25.60;98.30;;;;;;5022195;28;20208;-65
2022/07/06 15:52:00;;;;;;;0.90;0.90;;;25.70;98.10;;;;;;5014766;28;20318;-68
2022/07/06 15:54:27;;;;;;;0.82;0.82;;;25.70;97.60;;;;;;5019833;28;20209;-66
2022/07/06 15:56:54;;;;;;;0.60;0.60;;;25.70;97.60;;;;;;5021183;28;20291;-68
2022/07/06 15:59:23;;;;;;;0.68;0.60;;;25.70;97.40;;;;;;5024877;28;20232;-67
2022/07/06 16:01:50;;;;;;;1.55;0.80;;;25.70;97.60;;;;;;5031965;28;20303;-65
2022/07/06 16:04:17;;;;;;;0.70;0.70;;;25.60;97.50;;;;;;5032043;28;20278;-68
2022/07/06 16:06:44;;;;;;;0.70;0.70;;;25.40;97.40;;;;;;5033442;28;20227;-67
2022/07/06 16:09:11;;;;;;;0.75;0.75;;;25.30;97.70;;;;;;5030591;28;20200;-67
2022/07/06 16:11:38;;;;;;;0.98;0.70;;;25.20;97.60;;;;;;5032029;28;20589;-68